Seago Piraeus — OXVD2 — position and weather

sailwx.info

Track history (hours):
 
Tides and Currents Weather Stations Pressure Air Temp Water Temp Dewpoint Dewpoint Depression Visibility Wind Speed Wind Dir Waves Ship Positions

Seago Piraeus

Last reported at 2017-Feb-22 12:00 UTC. Time now 2017-Feb-22 15:17 UTC.
Position N 35°12' E 019°12'.

Length 294 m; draft 11.9 m.

Type: Ship (hazmat cat A). MMSI: 219117000.

Wind from 320 at 15 knots

Barometer 1022.4 mb
Air temperature 15.5 ° C
Visibility: greater than 10.8 NM
Dewpoint 7.5 ° C
Water temperature 15.4 ° C

Date/timePositionNaut miles runAvg speedWind from/ knotsBaromVisibWave heightAir tempDewpointWater temp
2017-Feb-22 12:00N 35°12' E 019°12'7819.4 320 / 151022.410.8 15.5 7.515.4
2017-Feb-22 08:00N 34°48' E 020°42'5719.1 340 / 251020.810.8 16.010.815.1
2017-Feb-22 05:00N 34°30' E 021°48'9724.3 350 / 201018.810.8 15.011.314.9
2017-Feb-22 01:00N 34°06' E 023°42'7815.7 050 / 201021.9 5.4 15.0 9.216.0
2017-Feb-21 20:00N 33°42' E 025°12'15619.5 310 / 201013.810.8 16.014.316.1
2017-Feb-21 12:00N 33°00' E 028°12'316 7.3 210 / 151021.310.8 16.0 8.118.0
2017-Feb-19 16:33N 31°56' E 034°19'17 1.3
2017-Feb-19 04:03N 31°51' E 034°38'0 0.9
2017-Feb-19 03:33N 31°52' E 034°37'3 0.1
2017-Feb-18 04:10N 31°52' E 034°34'  
2017-Feb-14 12:00N 31°24' E 029°42'22910.7 320 / 221020.310.8 16.5 5.016.6
2017-Feb-13 14:33N 34°15' E 032°43'1212.1
2017-Feb-13 13:33N 34°23' E 032°54'1212.2
2017-Feb-13 12:33N 34°32' E 033°04'7 6.8
2017-Feb-13 11:33N 34°39' E 033°01'0 0.0
2017-Feb-13 10:32N 34°39' E 033°01'0 0.0
2017-Feb-13 09:32N 34°39' E 033°01'0 0.0
2017-Feb-13 08:32N 34°39' E 033°01'0 0.0
2017-Feb-13 07:29N 34°39' E 033°01'0 0.0
2017-Feb-13 06:32N 34°39' E 033°01'0 0.0
2017-Feb-13 05:32N 34°39' E 033°01'0 0.0
2017-Feb-13 04:32N 34°39' E 033°01'0 0.0
2017-Feb-13 03:32N 34°39' E 033°01'0 0.0
2017-Feb-13 02:32N 34°39' E 033°01'0 0.0
2017-Feb-13 01:32N 34°39' E 033°01'0 0.0
2017-Feb-13 00:32N 34°39' E 033°01'0 0.0
2017-Feb-12 23:32N 34°39' E 033°01'0 0.0
2017-Feb-12 22:32N 34°39' E 033°01'0 0.0
2017-Feb-12 21:32N 34°39' E 033°01'0 0.0
2017-Feb-12 20:32N 34°39' E 033°01'0 0.0
2017-Feb-12 19:32N 34°39' E 033°01'0 0.0
2017-Feb-12 18:32N 34°39' E 033°01'0 0.0
2017-Feb-12 17:32N 34°39' E 033°01'0 0.0
2017-Feb-12 16:32N 34°39' E 033°01'0 0.0
2017-Feb-12 15:32N 34°39' E 033°01'0 0.0
2017-Feb-12 14:32N 34°39' E 033°01'0 0.0
2017-Feb-12 13:32N 34°39' E 033°01'0 0.0
2017-Feb-12 12:32N 34°39' E 033°01'  
Track history (hours):
 
Tides and Currents Weather Stations Pressure Air Temp Water Temp Dewpoint Dewpoint Depression Visibility Wind Speed Wind Dir Waves Ship Positions

Seago Piraeus

Last reported at 2017-Feb-22 12:00 UTC. Time now 2017-Feb-22 15:17 UTC.
Position N 35°12' E 019°12'.

Length 294 m; draft 11.9 m.

Type: Ship (hazmat cat A). MMSI: 219117000.

Wind from 320 at 15 knots

Barometer 1022.4 mb
Air temperature 15.5 ° C
Visibility: greater than 10.8 NM
Dewpoint 7.5 ° C
Water temperature 15.4 ° C

Date/timePositionNaut miles runAvg speedWind from/ knotsBaromVisibWave heightAir tempDewpointWater temp
2017-Feb-22 12:00N 35°12' E 019°12'7819.4 320 / 151022.410.8 15.5 7.515.4
2017-Feb-22 08:00N 34°48' E 020°42'5719.1 340 / 251020.810.8 16.010.815.1
2017-Feb-22 05:00N 34°30' E 021°48'9724.3 350 / 201018.810.8 15.011.314.9
2017-Feb-22 01:00N 34°06' E 023°42'7815.7 050 / 201021.9 5.4 15.0 9.216.0
2017-Feb-21 20:00N 33°42' E 025°12'15619.5 310 / 201013.810.8 16.014.316.1
2017-Feb-21 12:00N 33°00' E 028°12'316 7.3 210 / 151021.310.8 16.0 8.118.0
2017-Feb-19 16:33N 31°56' E 034°19'17 1.3
2017-Feb-19 04:03N 31°51' E 034°38'0 0.9
2017-Feb-19 03:33N 31°52' E 034°37'3 0.1
2017-Feb-18 04:10N 31°52' E 034°34'  
2017-Feb-14 12:00N 31°24' E 029°42'22910.7 320 / 221020.310.8 16.5 5.016.6
2017-Feb-13 14:33N 34°15' E 032°43'1212.1
2017-Feb-13 13:33N 34°23' E 032°54'1212.2
2017-Feb-13 12:33N 34°32' E 033°04'7 6.8
2017-Feb-13 11:33N 34°39' E 033°01'0 0.0
2017-Feb-13 10:32N 34°39' E 033°01'0 0.0
2017-Feb-13 09:32N 34°39' E 033°01'0 0.0
2017-Feb-13 08:32N 34°39' E 033°01'0 0.0
2017-Feb-13 07:29N 34°39' E 033°01'0 0.0
2017-Feb-13 06:32N 34°39' E 033°01'0 0.0
2017-Feb-13 05:32N 34°39' E 033°01'0 0.0
2017-Feb-13 04:32N 34°39' E 033°01'0 0.0
2017-Feb-13 03:32N 34°39' E 033°01'0 0.0
2017-Feb-13 02:32N 34°39' E 033°01'0 0.0
2017-Feb-13 01:32N 34°39' E 033°01'0 0.0
2017-Feb-13 00:32N 34°39' E 033°01'0 0.0
2017-Feb-12 23:32N 34°39' E 033°01'0 0.0
2017-Feb-12 22:32N 34°39' E 033°01'0 0.0
2017-Feb-12 21:32N 34°39' E 033°01'0 0.0
2017-Feb-12 20:32N 34°39' E 033°01'0 0.0
2017-Feb-12 19:32N 34°39' E 033°01'0 0.0
2017-Feb-12 18:32N 34°39' E 033°01'0 0.0
2017-Feb-12 17:32N 34°39' E 033°01'0 0.0
2017-Feb-12 16:32N 34°39' E 033°01'0 0.0
2017-Feb-12 15:32N 34°39' E 033°01'0 0.0
2017-Feb-12 14:32N 34°39' E 033°01'0 0.0
2017-Feb-12 13:32N 34°39' E 033°01'0 0.0
2017-Feb-12 12:32N 34°39' E 033°01'  

Dump ship's entire track history